sensor_id;sensor_type;location;lat;lon;timestamp;temperature;humidity
3684;DHT22;1858;48.716;9.648;2022-08-18T00:02:21;19.50;1.00
3684;DHT22;1858;48.716;9.648;2022-08-18T00:04:45;19.60;1.00
3684;DHT22;1858;48.716;9.648;2022-08-18T00:07:14;19.50;1.00
3684;DHT22;1858;48.716;9.648;2022-08-18T00:09:42;19.50;1.00
3684;DHT22;1858;48.716;9.648;2022-08-18T00:12:22;19.50;1.00
3684;DHT22;1858;48.716;9.648;2022-08-18T00:14:58;19.40;1.00
3684;DHT22;1858;48.716;9.648;2022-08-18T00:20:18;19.50;1.00
3684;DHT22;1858;48.716;9.648;2022-08-18T00:22:46;19.60;1.00
3684;DHT22;1858;48.716;9.648;2022-08-18T00:25:15;19.60;1.00
3684;DHT22;1858;48.716;9.648;2022-08-18T00:27:42;19.70;1.00
3684;DHT22;1858;48.716;9.648;2022-08-18T00:30:12;19.70;1.00
3684;DHT22;1858;48.716;9.648;2022-08-18T00:32:41;19.70;1.00
3684;DHT22;1858;48.716;9.648;2022-08-18T00:35:16;19.70;1.00
3684;DHT22;1858;48.716;9.648;2022-08-18T00:37:39;19.70;1.00
3684;DHT22;1858;48.716;9.648;2022-08-18T00:40:08;19.70;1.00
3684;DHT22;1858;48.716;9.648;2022-08-18T00:45:27;19.90;1.00
3684;DHT22;1858;48.716;9.648;2022-08-18T00:47:53;20.00;1.00
3684;DHT22;1858;48.716;9.648;2022-08-18T00:50:35;20.00;1.00
3684;DHT22;1858;48.716;9.648;2022-08-18T00:53:12;20.00;1.00
3684;DHT22;1858;48.716;9.648;2022-08-18T00:55:39;20.00;1.00
3684;DHT22;1858;48.716;9.648;2022-08-18T00:58:09;19.90;1.00
3684;DHT22;1858;48.716;9.648;2022-08-18T01:00:37;19.90;1.00
3684;DHT22;1858;48.716;9.648;2022-08-18T01:03:05;19.90;1.00
3684;DHT22;1858;48.716;9.648;2022-08-18T01:05:38;19.90;1.00
3684;DHT22;1858;48.716;9.648;2022-08-18T01:08:07;19.90;1.00
3684;DHT22;1858;48.716;9.648;2022-08-18T01:13:26;19.70;1.00
3684;DHT22;1858;48.716;9.648;2022-08-18T01:15:54;19.70;1.00
3684;DHT22;1858;48.716;9.648;2022-08-18T01:18:23;19.70;1.00
3684;DHT22;1858;48.716;9.648;2022-08-18T01:23:58;19.80;1.00
3684;DHT22;1858;48.716;9.648;2022-08-18T01:26:28;19.80;1.00
3684;DHT22;1858;48.716;9.648;2022-08-18T01:29:02;19.70;1.00
3684;DHT22;1858;48.716;9.648;2022-08-18T01:34:14;19.40;1.00
3684;DHT22;1858;48.716;9.648;2022-08-18T01:36:42;19.40;1.00
3684;DHT22;1858;48.716;9.648;2022-08-18T01:39:10;19.30;1.00
3684;DHT22;1858;48.716;9.648;2022-08-18T01:41:38;19.30;1.00
3684;DHT22;1858;48.716;9.648;2022-08-18T01:44:06;19.30;1.00
3684;DHT22;1858;48.716;9.648;2022-08-18T01:46:38;19.30;1.00
3684;DHT22;1858;48.716;9.648;2022-08-18T01:49:07;19.20;1.00
3684;DHT22;1858;48.716;9.648;2022-08-18T01:51:35;19.20;1.00
3684;DHT22;1858;48.716;9.648;2022-08-18T01:54:03;19.20;1.00
3684;DHT22;1858;48.716;9.648;2022-08-18T01:56:31;19.10;1.00
3684;DHT22;1858;48.716;9.648;2022-08-18T01:58:59;19.10;1.00
3684;DHT22;1858;48.716;9.648;2022-08-18T02:01:26;19.10;1.00
3684;DHT22;1858;48.716;9.648;2022-08-18T02:03:54;19.20;1.00
3684;DHT22;1858;48.716;9.648;2022-08-18T02:06:24;19.30;1.00
3684;DHT22;1858;48.716;9.648;2022-08-18T02:08:52;19.20;1.00
3684;DHT22;1858;48.716;9.648;2022-08-18T02:11:20;19.20;1.00
3684;DHT22;1858;48.716;9.648;2022-08-18T02:13:47;19.20;1.00
3684;DHT22;1858;48.716;9.648;2022-08-18T02:16:15;19.20;1.00
3684;DHT22;1858;48.716;9.648;2022-08-18T02:18:43;19.20;1.00
3684;DHT22;1858;48.716;9.648;2022-08-18T02:21:14;19.10;1.00
3684;DHT22;1858;48.716;9.648;2022-08-18T02:23:43;19.00;1.00
3684;DHT22;1858;48.716;9.648;2022-08-18T02:26:12;19.10;1.00
3684;DHT22;1858;48.716;9.648;2022-08-18T02:28:40;19.00;1.00
3684;DHT22;1858;48.716;9.648;2022-08-18T02:31:14;19.00;1.00
3684;DHT22;1858;48.716;9.648;2022-08-18T02:33:37;19.00;1.00
3684;DHT22;1858;48.716;9.648;2022-08-18T02:36:05;19.00;1.00
3684;DHT22;1858;48.716;9.648;2022-08-18T02:38:32;19.10;1.00
3684;DHT22;1858;48.716;9.648;2022-08-18T02:41:01;19.20;1.00
3684;DHT22;1858;48.716;9.648;2022-08-18T02:43:29;19.30;1.00
3684;DHT22;1858;48.716;9.648;2022-08-18T02:46:17;19.30;1.00
3684;DHT22;1858;48.716;9.648;2022-08-18T02:48:45;19.20;1.00
3684;DHT22;1858;48.716;9.648;2022-08-18T02:51:15;19.30;1.00
3684;DHT22;1858;48.716;9.648;2022-08-18T02:53:44;19.40;1.00
3684;DHT22;1858;48.716;9.648;2022-08-18T02:56:13;19.50;1.00
3684;DHT22;1858;48.716;9.648;2022-08-18T02:58:51;19.60;1.00
3684;DHT22;1858;48.716;9.648;2022-08-18T03:01:19;19.60;1.00
3684;DHT22;1858;48.716;9.648;2022-08-18T03:03:50;19.70;1.00
3684;DHT22;1858;48.716;9.648;2022-08-18T03:06:19;19.70;1.00
3684;DHT22;1858;48.716;9.648;2022-08-18T03:08:46;19.60;1.00
3684;DHT22;1858;48.716;9.648;2022-08-18T03:11:16;19.50;1.00
3684;DHT22;1858;48.716;9.648;2022-08-18T03:13:44;19.40;1.00
3684;DHT22;1858;48.716;9.648;2022-08-18T03:16:12;19.30;1.00
3684;DHT22;1858;48.716;9.648;2022-08-18T03:18:41;19.20;1.00
3684;DHT22;1858;48.716;9.648;2022-08-18T03:21:10;19.30;1.00
3684;DHT22;1858;48.716;9.648;2022-08-18T03:23:39;19.30;1.00
3684;DHT22;1858;48.716;9.648;2022-08-18T03:26:07;19.30;1.00
3684;DHT22;1858;48.716;9.648;2022-08-18T03:28:56;19.30;1.00
3684;DHT22;1858;48.716;9.648;2022-08-18T03:31:24;19.20;1.00
3684;DHT22;1858;48.716;9.648;2022-08-18T03:34:12;19.40;1.00
3684;DHT22;1858;48.716;9.648;2022-08-18T03:36:40;19.50;1.00
3684;DHT22;1858;48.716;9.648;2022-08-18T03:39:09;19.50;1.00
3684;DHT22;1858;48.716;9.648;2022-08-18T03:41:37;19.60;1.00
3684;DHT22;1858;48.716;9.648;2022-08-18T03:44:08;19.60;1.00
3684;DHT22;1858;48.716;9.648;2022-08-18T03:46:36;19.50;1.00
3684;DHT22;1858;48.716;9.648;2022-08-18T03:49:03;19.50;1.00
3684;DHT22;1858;48.716;9.648;2022-08-18T03:51:31;19.50;1.00
3684;DHT22;1858;48.716;9.648;2022-08-18T03:54:00;19.50;1.00
3684;DHT22;1858;48.716;9.648;2022-08-18T03:56:30;19.50;1.00
3684;DHT22;1858;48.716;9.648;2022-08-18T03:59:00;19.50;1.00
3684;DHT22;1858;48.716;9.648;2022-08-18T04:01:31;19.60;1.00
3684;DHT22;1858;48.716;9.648;2022-08-18T04:03:59;19.60;1.00
3684;DHT22;1858;48.716;9.648;2022-08-18T04:06:29;19.60;1.00
3684;DHT22;1858;48.716;9.648;2022-08-18T04:08:57;19.70;1.00
3684;DHT22;1858;48.716;9.648;2022-08-18T04:11:26;19.80;1.00
3684;DHT22;1858;48.716;9.648;2022-08-18T04:14:15;19.80;1.00
3684;DHT22;1858;48.716;9.648;2022-08-18T04:16:43;19.90;1.00
3684;DHT22;1858;48.716;9.648;2022-08-18T04:19:32;19.80;1.00
3684;DHT22;1858;48.716;9.648;2022-08-18T04:22:00;19.80;99.90
3684;DHT22;1858;48.716;9.648;2022-08-18T04:24:31;19.80;99.90
3684;DHT22;1858;48.716;9.648;2022-08-18T04:27:00;19.80;99.90
3684;DHT22;1858;48.716;9.648;2022-08-18T04:29:30;19.80;99.90
3684;DHT22;1858;48.716;9.648;2022-08-18T04:31:59;19.80;99.90
3684;DHT22;1858;48.716;9.648;2022-08-18T04:34:28;19.80;99.90
3684;DHT22;1858;48.716;9.648;2022-08-18T04:36:56;19.70;99.90
3684;DHT22;1858;48.716;9.648;2022-08-18T04:39:23;19.80;99.90
3684;DHT22;1858;48.716;9.648;2022-08-18T04:41:51;19.80;99.90
3684;DHT22;1858;48.716;9.648;2022-08-18T04:44:19;19.80;99.90
3684;DHT22;1858;48.716;9.648;2022-08-18T04:46:50;19.70;99.90
3684;DHT22;1858;48.716;9.648;2022-08-18T04:49:20;19.60;99.90
3684;DHT22;1858;48.716;9.648;2022-08-18T04:51:48;19.40;99.90
3684;DHT22;1858;48.716;9.648;2022-08-18T04:54:34;19.40;99.90
3684;DHT22;1858;48.716;9.648;2022-08-18T04:57:12;19.40;99.90
3684;DHT22;1858;48.716;9.648;2022-08-18T04:59:36;19.30;99.90
3684;DHT22;1858;48.716;9.648;2022-08-18T05:02:03;19.40;99.90
3684;DHT22;1858;48.716;9.648;2022-08-18T05:04:52;19.40;99.90
3684;DHT22;1858;48.716;9.648;2022-08-18T05:07:20;19.60;99.90
3684;DHT22;1858;48.716;9.648;2022-08-18T05:09:49;19.70;99.90
3684;DHT22;1858;48.716;9.648;2022-08-18T05:12:19;19.80;99.90
3684;DHT22;1858;48.716;9.648;2022-08-18T05:14:46;19.90;99.90
3684;DHT22;1858;48.716;9.648;2022-08-18T05:17:14;20.00;81.00
3684;DHT22;1858;48.716;9.648;2022-08-18T05:19:42;20.10;1.00
3684;DHT22;1858;48.716;9.648;2022-08-18T05:22:11;20.10;1.00
3684;DHT22;1858;48.716;9.648;2022-08-18T05:25:00;20.20;99.90
3684;DHT22;1858;48.716;9.648;2022-08-18T05:27:32;20.20;99.90
3684;DHT22;1858;48.716;9.648;2022-08-18T05:30:01;20.20;99.90
3684;DHT22;1858;48.716;9.648;2022-08-18T05:32:31;20.40;99.90
3684;DHT22;1858;48.716;9.648;2022-08-18T05:35:01;20.60;12.40
3684;DHT22;1858;48.716;9.648;2022-08-18T05:37:31;20.60;1.00
3684;DHT22;1858;48.716;9.648;2022-08-18T05:39:59;20.60;1.00
3684;DHT22;1858;48.716;9.648;2022-08-18T05:42:27;20.60;1.00
3684;DHT22;1858;48.716;9.648;2022-08-18T05:45:09;20.70;1.00
3684;DHT22;1858;48.716;9.648;2022-08-18T05:47:28;20.70;1.00
3684;DHT22;1858;48.716;9.648;2022-08-18T05:50:01;20.90;1.00
3684;DHT22;1858;48.716;9.648;2022-08-18T05:55:15;20.90;1.00
3684;DHT22;1858;48.716;9.648;2022-08-18T05:58:04;21.00;99.90
3684;DHT22;1858;48.716;9.648;2022-08-18T06:00:31;21.00;99.90
3684;DHT22;1858;48.716;9.648;2022-08-18T06:03:00;21.10;99.90
3684;DHT22;1858;48.716;9.648;2022-08-18T06:05:33;21.20;99.90
3684;DHT22;1858;48.716;9.648;2022-08-18T06:08:04;21.20;42.00
3684;DHT22;1858;48.716;9.648;2022-08-18T06:10:31;21.20;55.90
3684;DHT22;1858;48.716;9.648;2022-08-18T06:12:59;21.20;99.90
3684;DHT22;1858;48.716;9.648;2022-08-18T06:15:35;21.20;99.90
3684;DHT22;1858;48.716;9.648;2022-08-18T06:21:09;21.20;1.00
3684;DHT22;1858;48.716;9.648;2022-08-18T06:26:33;21.40;1.00
3684;DHT22;1858;48.716;9.648;2022-08-18T06:29:11;21.70;69.30
3684;DHT22;1858;48.716;9.648;2022-08-18T06:32:06;22.00;1.00
3684;DHT22;1858;48.716;9.648;2022-08-18T06:35:14;22.40;1.00
3684;DHT22;1858;48.716;9.648;2022-08-18T06:40:09;22.80;99.90
3684;DHT22;1858;48.716;9.648;2022-08-18T06:42:37;22.80;99.90
3684;DHT22;1858;48.716;9.648;2022-08-18T06:45:09;22.70;99.90
3684;DHT22;1858;48.716;9.648;2022-08-18T06:48:12;22.80;99.90
3684;DHT22;1858;48.716;9.648;2022-08-18T06:50:51;22.90;99.90
3684;DHT22;1858;48.716;9.648;2022-08-18T06:53:18;22.90;99.90
3684;DHT22;1858;48.716;9.648;2022-08-18T06:55:47;23.00;99.90
3684;DHT22;1858;48.716;9.648;2022-08-18T07:01:04;22.90;99.90
3684;DHT22;1858;48.716;9.648;2022-08-18T07:11:37;23.40;99.90
3684;DHT22;1858;48.716;9.648;2022-08-18T07:14:13;23.90;99.90
3684;DHT22;1858;48.716;9.648;2022-08-18T07:16:41;24.30;99.90
3684;DHT22;1858;48.716;9.648;2022-08-18T07:19:10;24.40;99.90
3684;DHT22;1858;48.716;9.648;2022-08-18T07:21:39;24.80;99.90
3684;DHT22;1858;48.716;9.648;2022-08-18T07:24:28;25.00;99.90
3684;DHT22;1858;48.716;9.648;2022-08-18T07:27:12;25.20;45.00
3684;DHT22;1858;48.716;9.648;2022-08-18T07:30:05;24.90;27.20
3684;DHT22;1858;48.716;9.648;2022-08-18T07:32:56;25.00;21.50
3684;DHT22;1858;48.716;9.648;2022-08-18T07:35:29;24.90;13.20
3684;DHT22;1858;48.716;9.648;2022-08-18T07:40:54;24.70;12.60
3684;DHT22;1858;48.716;9.648;2022-08-18T07:45:53;24.50;32.10
3684;DHT22;1858;48.716;9.648;2022-08-18T07:48:26;24.50;36.60
3684;DHT22;1858;48.716;9.648;2022-08-18T07:53:39;24.70;74.70
3684;DHT22;1858;48.716;9.648;2022-08-18T07:56:04;24.80;8.60
3684;DHT22;1858;48.716;9.648;2022-08-18T07:58:44;24.70;1.00
3684;DHT22;1858;48.716;9.648;2022-08-18T08:06:47;24.20;20.90
3684;DHT22;1858;48.716;9.648;2022-08-18T08:11:59;23.70;76.10
3684;DHT22;1858;48.716;9.648;2022-08-18T08:14:47;23.60;99.90
3684;DHT22;1858;48.716;9.648;2022-08-18T08:19:58;23.30;99.90
3684;DHT22;1858;48.716;9.648;2022-08-18T08:30:09;23.10;99.90
3684;DHT22;1858;48.716;9.648;2022-08-18T08:32:49;23.20;99.90
3684;DHT22;1858;48.716;9.648;2022-08-18T08:35:13;23.30;99.90
3684;DHT22;1858;48.716;9.648;2022-08-18T08:37:43;23.30;99.90
3684;DHT22;1858;48.716;9.648;2022-08-18T08:40:15;23.30;99.90
3684;DHT22;1858;48.716;9.648;2022-08-18T08:45:47;23.50;99.90
3684;DHT22;1858;48.716;9.648;2022-08-18T08:48:25;23.50;99.90
3684;DHT22;1858;48.716;9.648;2022-08-18T08:50:58;23.40;99.90
3684;DHT22;1858;48.716;9.648;2022-08-18T08:53:31;23.70;99.90
3684;DHT22;1858;48.716;9.648;2022-08-18T08:56:18;24.00;99.90
3684;DHT22;1858;48.716;9.648;2022-08-18T09:05:11;26.40;1.00
3684;DHT22;1858;48.716;9.648;2022-08-18T09:09:44;28.10;1.00
3684;DHT22;1858;48.716;9.648;2022-08-18T09:12:11;28.40;1.00
3684;DHT22;1858;48.716;9.648;2022-08-18T09:20:31;29.00;1.00
3684;DHT22;1858;48.716;9.648;2022-08-18T09:23:02;29.20;1.00
3684;DHT22;1858;48.716;9.648;2022-08-18T09:25:48;29.10;1.00
3684;DHT22;1858;48.716;9.648;2022-08-18T09:28:21;28.80;1.00
3684;DHT22;1858;48.716;9.648;2022-08-18T09:39:00;29.30;1.00
3684;DHT22;1858;48.716;9.648;2022-08-18T09:41:57;28.90;1.00
3684;DHT22;1858;48.716;9.648;2022-08-18T09:49:55;27.40;1.00
3684;DHT22;1858;48.716;9.648;2022-08-18T09:52:45;26.90;1.00
3684;DHT22;1858;48.716;9.648;2022-08-18T09:57:46;26.60;1.00
3684;DHT22;1858;48.716;9.648;2022-08-18T10:05:32;27.20;1.00
3684;DHT22;1858;48.716;9.648;2022-08-18T10:10:49;27.30;1.00
3684;DHT22;1858;48.716;9.648;2022-08-18T10:22:00;29.00;1.00
3684;DHT22;1858;48.716;9.648;2022-08-18T10:29:05;30.10;1.00
3684;DHT22;1858;48.716;9.648;2022-08-18T10:39:49;35.60;99.90
3684;DHT22;1858;48.716;9.648;2022-08-18T10:42:22;36.00;99.90
3684;DHT22;1858;48.716;9.648;2022-08-18T10:44:50;35.40;99.90
3684;DHT22;1858;48.716;9.648;2022-08-18T10:47:26;34.70;99.90
3684;DHT22;1858;48.716;9.648;2022-08-18T10:49:55;35.70;99.90
3684;DHT22;1858;48.716;9.648;2022-08-18T10:52:44;37.50;99.90
3684;DHT22;1858;48.716;9.648;2022-08-18T11:06:43;35.80;99.90
3684;DHT22;1858;48.716;9.648;2022-08-18T11:09:07;34.80;99.90
3684;DHT22;1858;48.716;9.648;2022-08-18T11:11:40;34.00;99.90
3684;DHT22;1858;48.716;9.648;2022-08-18T11:14:24;34.50;99.90
3684;DHT22;1858;48.716;9.648;2022-08-18T11:16:46;34.50;99.90
3684;DHT22;1858;48.716;9.648;2022-08-18T11:19:12;34.00;99.90
3684;DHT22;1858;48.716;9.648;2022-08-18T11:21:46;34.10;99.90
3684;DHT22;1858;48.716;9.648;2022-08-18T11:24:13;33.50;99.90
3684;DHT22;1858;48.716;9.648;2022-08-18T11:26:51;33.00;99.90
3684;DHT22;1858;48.716;9.648;2022-08-18T11:29:33;32.60;99.90
3684;DHT22;1858;48.716;9.648;2022-08-18T11:31:44;32.30;99.90
3684;DHT22;1858;48.716;9.648;2022-08-18T11:34:14;32.00;99.90
3684;DHT22;1858;48.716;9.648;2022-08-18T11:36:42;31.90;99.90
3684;DHT22;1858;48.716;9.648;2022-08-18T11:39:10;31.20;99.90
3684;DHT22;1858;48.716;9.648;2022-08-18T11:41:38;30.90;99.90
3684;DHT22;1858;48.716;9.648;2022-08-18T11:44:07;30.90;99.90
3684;DHT22;1858;48.716;9.648;2022-08-18T11:46:37;30.80;99.90
3684;DHT22;1858;48.716;9.648;2022-08-18T11:49:16;31.00;99.90
3684;DHT22;1858;48.716;9.648;2022-08-18T11:52:13;31.00;99.90
3684;DHT22;1858;48.716;9.648;2022-08-18T11:54:38;31.10;99.90
3684;DHT22;1858;48.716;9.648;2022-08-18T11:59:46;30.80;99.90
3684;DHT22;1858;48.716;9.648;2022-08-18T12:02:17;30.90;99.90
3684;DHT22;1858;48.716;9.648;2022-08-18T12:04:48;30.90;99.90
3684;DHT22;1858;48.716;9.648;2022-08-18T12:07:16;30.90;99.90
3684;DHT22;1858;48.716;9.648;2022-08-18T12:10:08;30.60;99.90
3684;DHT22;1858;48.716;9.648;2022-08-18T12:12:18;30.70;99.90
3684;DHT22;1858;48.716;9.648;2022-08-18T12:14:52;30.70;99.90
3684;DHT22;1858;48.716;9.648;2022-08-18T12:17:21;30.50;99.90
3684;DHT22;1858;48.716;9.648;2022-08-18T12:19:49;30.40;99.90
3684;DHT22;1858;48.716;9.648;2022-08-18T12:22:19;30.50;99.90
3684;DHT22;1858;48.716;9.648;2022-08-18T12:24:47;30.70;99.90
3684;DHT22;1858;48.716;9.648;2022-08-18T12:27:17;30.40;99.90
3684;DHT22;1858;48.716;9.648;2022-08-18T12:29:45;30.10;99.90
3684;DHT22;1858;48.716;9.648;2022-08-18T12:32:12;29.90;99.90
3684;DHT22;1858;48.716;9.648;2022-08-18T12:34:40;29.70;99.90
3684;DHT22;1858;48.716;9.648;2022-08-18T12:37:08;29.80;99.90
3684;DHT22;1858;48.716;9.648;2022-08-18T12:39:36;29.80;99.90
3684;DHT22;1858;48.716;9.648;2022-08-18T12:42:04;29.70;99.90
3684;DHT22;1858;48.716;9.648;2022-08-18T12:44:32;29.80;99.90
3684;DHT22;1858;48.716;9.648;2022-08-18T12:47:00;29.90;99.90
3684;DHT22;1858;48.716;9.648;2022-08-18T12:49:28;29.80;99.90
3684;DHT22;1858;48.716;9.648;2022-08-18T12:51:57;29.70;99.90
3684;DHT22;1858;48.716;9.648;2022-08-18T12:54:25;29.30;99.90
3684;DHT22;1858;48.716;9.648;2022-08-18T12:56:53;29.00;99.90
3684;DHT22;1858;48.716;9.648;2022-08-18T12:59:21;28.50;99.90
3684;DHT22;1858;48.716;9.648;2022-08-18T13:01:49;28.30;99.90
3684;DHT22;1858;48.716;9.648;2022-08-18T13:04:17;28.30;99.90
3684;DHT22;1858;48.716;9.648;2022-08-18T13:06:52;28.40;99.90
3684;DHT22;1858;48.716;9.648;2022-08-18T13:09:20;28.30;99.90
3684;DHT22;1858;48.716;9.648;2022-08-18T13:11:50;28.40;99.90
3684;DHT22;1858;48.716;9.648;2022-08-18T13:14:18;28.60;99.90
3684;DHT22;1858;48.716;9.648;2022-08-18T13:16:45;28.90;99.90
3684;DHT22;1858;48.716;9.648;2022-08-18T13:19:13;29.00;99.90
3684;DHT22;1858;48.716;9.648;2022-08-18T13:21:41;29.20;99.90
3684;DHT22;1858;48.716;9.648;2022-08-18T13:24:09;29.40;99.90
3684;DHT22;1858;48.716;9.648;2022-08-18T13:26:38;29.50;99.90
3684;DHT22;1858;48.716;9.648;2022-08-18T13:29:06;29.50;99.90
3684;DHT22;1858;48.716;9.648;2022-08-18T13:31:40;29.50;99.90
3684;DHT22;1858;48.716;9.648;2022-08-18T13:34:08;29.40;99.90
3684;DHT22;1858;48.716;9.648;2022-08-18T13:36:36;29.40;99.90
3684;DHT22;1858;48.716;9.648;2022-08-18T13:39:14;29.40;99.90
3684;DHT22;1858;48.716;9.648;2022-08-18T13:41:43;29.40;99.90
3684;DHT22;1858;48.716;9.648;2022-08-18T13:44:11;29.30;99.90
3684;DHT22;1858;48.716;9.648;2022-08-18T13:46:40;29.40;99.90
3684;DHT22;1858;48.716;9.648;2022-08-18T13:49:15;29.50;99.90
3684;DHT22;1858;48.716;9.648;2022-08-18T13:51:46;29.60;99.90
3684;DHT22;1858;48.716;9.648;2022-08-18T13:54:17;29.60;99.90
3684;DHT22;1858;48.716;9.648;2022-08-18T13:56:44;29.50;99.90
3684;DHT22;1858;48.716;9.648;2022-08-18T13:59:12;29.50;99.90
3684;DHT22;1858;48.716;9.648;2022-08-18T14:01:40;29.70;99.90
3684;DHT22;1858;48.716;9.648;2022-08-18T14:04:08;29.70;99.90
3684;DHT22;1858;48.716;9.648;2022-08-18T14:06:38;29.80;99.90
3684;DHT22;1858;48.716;9.648;2022-08-18T14:09:06;29.90;99.90
3684;DHT22;1858;48.716;9.648;2022-08-18T14:11:34;30.00;99.90
3684;DHT22;1858;48.716;9.648;2022-08-18T14:14:03;29.90;99.90
3684;DHT22;1858;48.716;9.648;2022-08-18T14:16:32;29.70;99.90
3684;DHT22;1858;48.716;9.648;2022-08-18T14:19:00;29.70;99.90
3684;DHT22;1858;48.716;9.648;2022-08-18T14:21:47;29.80;99.90
3684;DHT22;1858;48.716;9.648;2022-08-18T14:24:34;30.00;99.90
3684;DHT22;1858;48.716;9.648;2022-08-18T14:27:27;30.30;99.90
3684;DHT22;1858;48.716;9.648;2022-08-18T14:30:21;30.50;99.90
3684;DHT22;1858;48.716;9.648;2022-08-18T14:32:49;30.50;99.90
3684;DHT22;1858;48.716;9.648;2022-08-18T14:35:19;30.40;99.90
3684;DHT22;1858;48.716;9.648;2022-08-18T14:37:48;30.20;99.90
3684;DHT22;1858;48.716;9.648;2022-08-18T14:40:16;30.20;99.90
3684;DHT22;1858;48.716;9.648;2022-08-18T14:42:45;30.10;99.90
3684;DHT22;1858;48.716;9.648;2022-08-18T14:45:13;30.30;99.90
3684;DHT22;1858;48.716;9.648;2022-08-18T14:47:41;30.50;99.90
3684;DHT22;1858;48.716;9.648;2022-08-18T14:50:09;30.50;99.90
3684;DHT22;1858;48.716;9.648;2022-08-18T14:52:39;30.70;99.90
3684;DHT22;1858;48.716;9.648;2022-08-18T14:55:07;30.80;99.90
3684;DHT22;1858;48.716;9.648;2022-08-18T14:57:37;30.90;99.90
3684;DHT22;1858;48.716;9.648;2022-08-18T15:00:06;31.00;99.90
3684;DHT22;1858;48.716;9.648;2022-08-18T15:02:53;31.00;99.90
3684;DHT22;1858;48.716;9.648;2022-08-18T15:05:23;31.00;99.90
3684;DHT22;1858;48.716;9.648;2022-08-18T15:07:51;31.10;99.90
3684;DHT22;1858;48.716;9.648;2022-08-18T15:10:24;31.10;99.90
3684;DHT22;1858;48.716;9.648;2022-08-18T15:12:52;31.10;99.90
3684;DHT22;1858;48.716;9.648;2022-08-18T15:15:19;31.10;99.90
3684;DHT22;1858;48.716;9.648;2022-08-18T15:17:47;31.10;99.90
3684;DHT22;1858;48.716;9.648;2022-08-18T15:20:15;31.00;99.90
3684;DHT22;1858;48.716;9.648;2022-08-18T15:22:43;30.80;99.90
3684;DHT22;1858;48.716;9.648;2022-08-18T15:25:35;30.80;99.90
3684;DHT22;1858;48.716;9.648;2022-08-18T15:28:30;30.70;99.90
3684;DHT22;1858;48.716;9.648;2022-08-18T15:30:58;30.70;99.90
3684;DHT22;1858;48.716;9.648;2022-08-18T15:33:26;30.60;99.90
3684;DHT22;1858;48.716;9.648;2022-08-18T15:35:53;30.50;99.90
3684;DHT22;1858;48.716;9.648;2022-08-18T15:38:22;30.50;99.90
3684;DHT22;1858;48.716;9.648;2022-08-18T15:40:59;30.50;99.90
3684;DHT22;1858;48.716;9.648;2022-08-18T15:43:30;30.50;99.90
3684;DHT22;1858;48.716;9.648;2022-08-18T15:45:55;30.60;99.90
3684;DHT22;1858;48.716;9.648;2022-08-18T15:48:23;30.70;99.90
3684;DHT22;1858;48.716;9.648;2022-08-18T15:50:54;30.60;99.90
3684;DHT22;1858;48.716;9.648;2022-08-18T15:53:24;30.50;99.90
3684;DHT22;1858;48.716;9.648;2022-08-18T15:55:51;30.50;99.90
3684;DHT22;1858;48.716;9.648;2022-08-18T15:58:19;30.40;99.90
3684;DHT22;1858;48.716;9.648;2022-08-18T16:00:47;30.30;99.90
3684;DHT22;1858;48.716;9.648;2022-08-18T16:03:15;30.20;99.90
3684;DHT22;1858;48.716;9.648;2022-08-18T16:05:52;30.10;99.90
3684;DHT22;1858;48.716;9.648;2022-08-18T16:08:21;30.00;99.90
3684;DHT22;1858;48.716;9.648;2022-08-18T16:10:51;29.90;99.90
3684;DHT22;1858;48.716;9.648;2022-08-18T16:13:19;29.80;99.90
3684;DHT22;1858;48.716;9.648;2022-08-18T16:15:50;29.60;99.90
3684;DHT22;1858;48.716;9.648;2022-08-18T16:18:19;29.50;99.90
3684;DHT22;1858;48.716;9.648;2022-08-18T16:20:47;29.40;99.90
3684;DHT22;1858;48.716;9.648;2022-08-18T16:23:15;29.30;99.90
3684;DHT22;1858;48.716;9.648;2022-08-18T16:25:43;29.10;99.90
3684;DHT22;1858;48.716;9.648;2022-08-18T16:28:11;29.00;99.90
3684;DHT22;1858;48.716;9.648;2022-08-18T16:30:39;28.80;99.90
3684;DHT22;1858;48.716;9.648;2022-08-18T16:33:07;28.70;99.90
3684;DHT22;1858;48.716;9.648;2022-08-18T16:35:36;28.60;99.90
3684;DHT22;1858;48.716;9.648;2022-08-18T16:38:05;28.60;99.90
3684;DHT22;1858;48.716;9.648;2022-08-18T16:40:34;28.40;99.90
3684;DHT22;1858;48.716;9.648;2022-08-18T16:43:02;28.30;99.90
3684;DHT22;1858;48.716;9.648;2022-08-18T16:45:30;28.40;99.90
3684;DHT22;1858;48.716;9.648;2022-08-18T16:47:59;28.30;99.90
3684;DHT22;1858;48.716;9.648;2022-08-18T16:50:28;28.20;99.90
3684;DHT22;1858;48.716;9.648;2022-08-18T16:52:55;28.10;99.90
3684;DHT22;1858;48.716;9.648;2022-08-18T16:55:23;28.10;99.90
3684;DHT22;1858;48.716;9.648;2022-08-18T16:57:51;28.00;99.90
3684;DHT22;1858;48.716;9.648;2022-08-18T17:00:36;28.00;99.90
3684;DHT22;1858;48.716;9.648;2022-08-18T17:03:22;27.90;99.90
3684;DHT22;1858;48.716;9.648;2022-08-18T17:06:15;27.80;99.90
3684;DHT22;1858;48.716;9.648;2022-08-18T17:08:38;27.70;99.90
3684;DHT22;1858;48.716;9.648;2022-08-18T17:11:07;27.60;99.90
3684;DHT22;1858;48.716;9.648;2022-08-18T17:13:36;27.60;99.90
3684;DHT22;1858;48.716;9.648;2022-08-18T17:16:07;27.60;99.90
3684;DHT22;1858;48.716;9.648;2022-08-18T17:18:34;27.40;99.90
3684;DHT22;1858;48.716;9.648;2022-08-18T17:21:03;27.30;99.90
3684;DHT22;1858;48.716;9.648;2022-08-18T17:23:50;27.20;99.90
3684;DHT22;1858;48.716;9.648;2022-08-18T17:29:21;27.10;99.90
3684;DHT22;1858;48.716;9.648;2022-08-18T17:31:50;27.00;99.90
3684;DHT22;1858;48.716;9.648;2022-08-18T17:34:13;26.90;99.90
3684;DHT22;1858;48.716;9.648;2022-08-18T17:36:45;26.90;99.90
3684;DHT22;1858;48.716;9.648;2022-08-18T17:39:10;26.90;99.90
3684;DHT22;1858;48.716;9.648;2022-08-18T17:41:41;26.70;99.90
3684;DHT22;1858;48.716;9.648;2022-08-18T17:44:26;26.70;99.90
3684;DHT22;1858;48.716;9.648;2022-08-18T17:46:56;26.60;99.90
3684;DHT22;1858;48.716;9.648;2022-08-18T17:49:26;26.60;99.90
3684;DHT22;1858;48.716;9.648;2022-08-18T17:51:55;26.60;99.90
3684;DHT22;1858;48.716;9.648;2022-08-18T17:54:35;26.40;99.90
3684;DHT22;1858;48.716;9.648;2022-08-18T17:57:31;26.40;99.90
3684;DHT22;1858;48.716;9.648;2022-08-18T18:00:07;26.30;99.90
3684;DHT22;1858;48.716;9.648;2022-08-18T18:02:42;26.20;99.90
3684;DHT22;1858;48.716;9.648;2022-08-18T18:05:14;26.20;99.90
3684;DHT22;1858;48.716;9.648;2022-08-18T18:10:26;26.10;99.90
3684;DHT22;1858;48.716;9.648;2022-08-18T18:15:44;26.00;99.90
3684;DHT22;1858;48.716;9.648;2022-08-18T18:18:37;25.90;99.90
3684;DHT22;1858;48.716;9.648;2022-08-18T18:21:18;25.80;99.90
3684;DHT22;1858;48.716;9.648;2022-08-18T18:26:36;25.70;1.00
3684;DHT22;1858;48.716;9.648;2022-08-18T18:29:24;25.60;1.40
3684;DHT22;1858;48.716;9.648;2022-08-18T18:32:06;25.60;1.00
3684;DHT22;1858;48.716;9.648;2022-08-18T18:34:42;25.50;1.00
3684;DHT22;1858;48.716;9.648;2022-08-18T18:37:29;25.40;1.00
3684;DHT22;1858;48.716;9.648;2022-08-18T18:39:35;25.40;1.00
3684;DHT22;1858;48.716;9.648;2022-08-18T18:42:12;25.30;1.00
3684;DHT22;1858;48.716;9.648;2022-08-18T18:48:12;25.30;1.00
3684;DHT22;1858;48.716;9.648;2022-08-18T18:53:02;25.00;1.00
3684;DHT22;1858;48.716;9.648;2022-08-18T18:55:29;25.00;1.00
3684;DHT22;1858;48.716;9.648;2022-08-18T19:00:36;24.90;1.00
3684;DHT22;1858;48.716;9.648;2022-08-18T19:08:24;24.70;1.00
3684;DHT22;1858;48.716;9.648;2022-08-18T19:11:11;24.70;1.00
3684;DHT22;1858;48.716;9.648;2022-08-18T19:13:42;24.70;1.00
3684;DHT22;1858;48.716;9.648;2022-08-18T19:16:24;24.60;1.00
3684;DHT22;1858;48.716;9.648;2022-08-18T19:18:49;24.50;1.00
3684;DHT22;1858;48.716;9.648;2022-08-18T19:21:20;24.50;1.00